Time;durP1;ratioP1;P1;durP2;ratioP2;P2;SDS_P1;SDS_P2;PMS_P1;PMS_P2;Temp;Humidity;BMP_temperature;BMP_pressure;BME280_temperature;BME280_humidity;BME280_pressure;Samples;Min_cycle;Max_cycle;Signal;HPM_P1;HPM_P2
2021/07/03 00:00:30;;;;;;;13.80;10.70;;;;;;;18.89;79.96;100482.25;5084547;28;20030;-66
2021/07/03 00:02:55;;;;;;;13.00;10.57;;;;;;;18.93;80.01;100478.56;5085947;28;20048;-66
2021/07/03 00:05:21;;;;;;;14.85;13.05;;;;;;;18.97;79.97;100476.66;5085897;28;20029;-66
2021/07/03 00:07:47;;;;;;;17.90;13.07;;;;;;;18.97;79.97;100481.91;5085667;28;20058;-66
2021/07/03 00:10:12;;;;;;;15.07;12.43;;;;;;;18.97;79.89;100486.31;5084488;28;20028;-65
2021/07/03 00:12:38;;;;;;;17.35;14.23;;;;;;;18.94;79.69;100488.19;5085660;28;20064;-67
2021/07/03 00:15:10;;;;;;;16.77;14.93;;;;;;;18.93;79.56;100483.81;5085794;28;20024;-65
2021/07/03 00:17:36;;;;;;;15.43;12.93;;;;;;;18.91;79.73;100482.19;5085371;28;20029;-65
2021/07/03 00:20:05;;;;;;;18.50;13.65;;;;;;;18.90;79.72;100485.72;5085618;28;20059;-64
2021/07/03 00:22:30;;;;;;;16.38;12.63;;;;;;;18.84;79.74;100486.84;5085512;28;20036;-65
2021/07/03 00:24:56;;;;;;;14.57;13.05;;;;;;;18.80;79.76;100494.00;5085523;28;20032;-65
2021/07/03 00:27:21;;;;;;;17.58;13.73;;;;;;;18.78;79.70;100481.84;5085274;28;20473;-65
2021/07/03 00:29:46;;;;;;;16.13;13.65;;;;;;;18.78;79.81;100487.97;5085147;28;20078;-65
2021/07/03 00:32:12;;;;;;;16.88;14.27;;;;;;;18.76;80.08;100488.94;5085671;28;20051;-65
2021/07/03 00:34:37;;;;;;;16.08;13.38;;;;;;;18.75;80.16;100489.84;5085389;28;20043;-65
2021/07/03 00:37:03;;;;;;;16.40;13.52;;;;;;;18.69;80.17;100489.19;5085183;28;20028;-65
2021/07/03 00:39:28;;;;;;;15.63;13.55;;;;;;;18.68;80.21;100495.38;5085283;28;20229;-65
2021/07/03 00:41:53;;;;;;;16.35;14.13;;;;;;;18.65;80.67;100498.13;5085263;28;20066;-65
2021/07/03 00:44:32;;;;;;;16.38;14.40;;;;;;;18.64;80.20;100495.56;5084934;28;20392;-65
2021/07/03 00:47:00;;;;;;;15.43;13.93;;;;;;;18.61;80.49;100490.44;5083638;28;20082;-64
2021/07/03 00:49:25;;;;;;;12.55;11.25;;;;;;;18.63;80.69;100496.47;5084915;28;20025;-64
2021/07/03 00:51:52;;;;;;;13.55;11.00;;;;;;;18.68;80.49;100494.50;5083691;28;20024;-65
2021/07/03 00:54:20;;;;;;;12.25;10.40;;;;;;;18.74;80.64;100491.63;5084882;28;20456;-65
2021/07/03 00:56:46;;;;;;;11.18;10.07;;;;;;;18.81;80.48;100498.34;5084579;28;20033;-65
2021/07/03 00:59:11;;;;;;;14.35;10.40;;;;;;;18.86;80.09;100494.66;5084839;28;20017;-66
2021/07/03 01:01:36;;;;;;;11.90;10.15;;;;;;;18.88;79.98;100491.03;5084871;28;20052;-66
2021/07/03 01:04:02;;;;;;;11.55;10.13;;;;;;;18.94;80.07;100492.56;5084798;28;20515;-66
2021/07/03 01:06:28;;;;;;;10.77;9.70;;;;;;;18.95;79.80;100489.00;5084647;28;20023;-65
2021/07/03 01:08:53;;;;;;;15.73;9.98;;;;;;;19.00;79.63;100499.34;5085056;28;20040;-65
2021/07/03 01:11:29;;;;;;;12.98;9.98;;;;;;;19.07;79.68;100501.63;5084449;28;20024;-65
2021/07/03 01:13:55;;;;;;;11.85;9.68;;;;;;;19.11;79.62;100499.78;5084675;28;20020;-65
2021/07/03 01:16:21;;;;;;;10.88;9.73;;;;;;;19.16;79.20;100510.97;5084091;28;20025;-66
2021/07/03 01:18:46;;;;;;;12.88;10.57;;;;;;;19.20;79.01;100504.63;5083236;28;20025;-66
2021/07/03 01:21:15;;;;;;;11.95;9.90;;;;;;;19.23;78.90;100503.66;5084282;28;20046;-65
2021/07/03 01:23:41;;;;;;;11.55;10.38;;;;;;;19.20;78.85;100498.53;5084234;28;20024;-65
2021/07/03 01:26:07;;;;;;;11.88;10.15;;;;;;;19.20;78.98;100502.00;5084400;28;20031;-65
2021/07/03 01:28:32;;;;;;;14.23;11.82;;;;;;;19.11;78.97;100493.63;5084060;28;20025;-66
2021/07/03 01:30:57;;;;;;;14.35;11.93;;;;;;;19.16;78.76;100507.47;5084112;28;20124;-65
2021/07/03 01:33:23;;;;;;;12.73;11.07;;;;;;;19.12;78.61;100501.47;5083967;28;20434;-66
2021/07/03 01:35:48;;;;;;;13.68;12.10;;;;;;;19.09;78.84;100496.34;5084227;28;20021;-66
2021/07/03 01:38:22;;;;;;;12.73;11.43;;;;;;;19.06;78.76;100494.69;5084193;28;20029;-66
2021/07/03 01:40:48;;;;;;;14.07;10.70;;;;;;;19.02;78.78;100494.88;5084242;28;20028;-66
2021/07/03 01:43:21;;;;;;;11.43;10.23;;;;;;;19.00;78.78;100496.69;5084300;28;20021;-66
2021/07/03 01:45:48;;;;;;;11.15;9.80;;;;;;;19.01;78.67;100490.53;5083525;28;20020;-66
2021/07/03 01:48:13;;;;;;;10.70;9.50;;;;;;;19.02;78.57;100497.50;5083590;28;20045;-65
2021/07/03 01:50:39;;;;;;;10.38;9.05;;;;;;;19.05;78.38;100492.97;5083690;28;20024;-65
2021/07/03 01:53:04;;;;;;;14.30;11.35;;;;;;;19.06;78.67;100493.81;5083888;28;20409;-65
2021/07/03 01:55:30;;;;;;;12.57;10.70;;;;;;;19.10;78.28;100494.56;5083712;28;20655;-65
2021/07/03 01:57:55;;;;;;;11.48;10.23;;;;;;;19.11;78.35;100498.91;5083288;28;20035;-65
2021/07/03 02:00:20;;;;;;;13.45;9.98;;;;;;;19.11;78.21;100504.16;5083686;28;20033;-65
2021/07/03 02:02:47;;;;;;;11.63;10.43;;;;;;;19.10;78.42;100507.72;5083891;28;20143;-65
2021/07/03 02:05:12;;;;;;;15.93;10.70;;;;;;;19.06;78.16;100496.44;5083969;28;20027;-65
2021/07/03 02:07:38;;;;;;;13.77;12.40;;;;;;;19.02;78.07;100498.38;5083487;28;20335;-65
2021/07/03 02:10:04;;;;;;;15.00;13.15;;;;;;;18.93;78.32;100494.34;5083698;28;20032;-65
2021/07/03 02:12:29;;;;;;;14.32;12.88;;;;;;;18.88;78.30;100492.84;5082047;28;20025;-65
2021/07/03 02:14:55;;;;;;;16.73;13.48;;;;;;;18.79;78.22;100491.44;5083706;28;20100;-65
2021/07/03 02:17:20;;;;;;;15.48;13.05;;;;;;;18.69;78.25;100489.19;5081835;28;20028;-65
2021/07/03 02:19:45;;;;;;;16.60;14.85;;;;;;;18.62;78.51;100493.00;5083232;28;20039;-65
2021/07/03 02:22:11;;;;;;;18.67;15.52;;;;;;;18.52;78.87;100487.25;5083429;28;20236;-65
2021/07/03 02:24:37;;;;;;;16.25;14.38;;;;;;;18.45;78.95;100491.06;5082028;28;20027;-64
2021/07/03 02:27:03;;;;;;;15.98;13.63;;;;;;;18.37;79.34;100485.25;5081798;28;20525;-65
2021/07/03 02:29:29;;;;;;;19.65;14.93;;;;;;;18.38;79.61;100490.44;5083356;28;20496;-65
2021/07/03 02:31:54;;;;;;;14.07;12.63;;;;;;;18.36;79.66;100486.16;5082008;28;20036;-65
2021/07/03 02:34:19;;;;;;;20.90;12.95;;;;;;;18.40;79.96;100495.63;5083420;28;20395;-65
2021/07/03 02:36:45;;;;;;;14.32;12.10;;;;;;;18.40;79.64;100488.59;5083111;28;20020;-64
2021/07/03 02:39:10;;;;;;;14.32;12.13;;;;;;;18.42;79.65;100488.53;5083401;28;20021;-66
2021/07/03 02:41:35;;;;;;;15.10;11.48;;;;;;;18.45;79.68;100491.06;5082970;28;20025;-66
2021/07/03 02:44:01;;;;;;;12.90;11.25;;;;;;;18.48;79.72;100497.97;5083248;28;20158;-66
2021/07/03 02:46:27;;;;;;;14.25;10.52;;;;;;;18.51;79.92;100493.44;5082875;28;20017;-66
2021/07/03 02:48:52;;;;;;;12.93;10.45;;;;;;;18.56;79.53;100491.44;5083104;28;20492;-66
2021/07/03 02:51:18;;;;;;;11.27;10.10;;;;;;;18.59;79.42;100487.88;5083069;28;20053;-66
2021/07/03 02:53:43;;;;;;;11.45;8.00;;;;;;;18.65;78.58;100484.13;5082852;28;20025;-65
2021/07/03 02:56:08;;;;;;;11.15;9.43;;;;;;;18.72;78.43;100493.47;5081249;28;20082;-65
2021/07/03 02:58:34;;;;;;;16.65;10.50;;;;;;;18.71;78.37;100481.22;5082903;28;20024;-65
2021/07/03 03:00:59;;;;;;;11.93;9.40;;;;;;;18.67;78.20;100479.66;5083063;28;20082;-65
2021/07/03 03:03:25;;;;;;;12.55;9.68;;;;;;;18.65;78.17;100487.59;5083000;28;20090;-64
2021/07/03 03:05:50;;;;;;;11.63;10.07;;;;;;;18.62;78.08;100486.88;5082895;28;20385;-65
2021/07/03 03:08:16;;;;;;;13.15;10.15;;;;;;;18.57;78.25;100485.31;5082810;28;20021;-66
2021/07/03 03:10:41;;;;;;;12.90;9.60;;;;;;;18.57;78.06;100485.31;5083615;28;20020;-65
2021/07/03 03:13:07;;;;;;;11.27;9.75;;;;;;;18.59;78.09;100485.22;5086735;28;20024;-64
2021/07/03 03:15:32;;;;;;;10.98;8.98;;;;;;;18.62;77.79;100478.97;5086750;28;20059;-65
2021/07/03 03:17:57;;;;;;;10.00;8.55;;;;;;;18.66;77.33;100484.06;5086247;28;20323;-65
2021/07/03 03:20:23;;;;;;;12.30;8.48;;;;;;;18.72;77.40;100482.97;5085193;28;20024;-65
2021/07/03 03:22:48;;;;;;;10.60;7.70;;;;;;;18.93;76.94;100485.59;5086366;28;20028;-64
2021/07/03 03:25:14;;;;;;;10.48;7.80;;;;;;;18.99;76.54;100477.47;5086614;28;20032;-65
2021/07/03 03:27:39;;;;;;;10.75;7.57;;;;;;;19.11;76.23;100489.25;5084770;28;20027;-65
2021/07/03 03:30:06;;;;;;;9.85;8.57;;;;;;;19.26;76.95;100492.13;5086426;28;20016;-66
2021/07/03 03:32:32;;;;;;;10.75;7.72;;;;;;;19.43;76.35;100491.38;5086475;28;20044;-66
2021/07/03 03:34:57;;;;;;;9.07;8.18;;;;;;;19.54;75.55;100483.00;5086371;28;20023;-67
2021/07/03 03:37:22;;;;;;;10.10;7.93;;;;;;;19.54;75.17;100483.88;5086109;28;20016;-66
2021/07/03 03:39:48;;;;;;;8.93;7.93;;;;;;;19.51;74.09;100476.09;5086003;28;20660;-66
2021/07/03 03:42:13;;;;;;;10.02;7.15;;;;;;;19.49;73.06;100472.69;5085852;28;20021;-67
2021/07/03 03:44:39;;;;;;;8.60;7.05;;;;;;;19.44;72.48;100479.94;5086001;28;20020;-66
2021/07/03 03:47:04;;;;;;;8.18;7.25;;;;;;;19.40;71.94;100478.34;5084780;28;20017;-66
2021/07/03 03:49:29;;;;;;;10.02;7.30;;;;;;;19.43;71.83;100473.81;5085758;28;20082;-66
2021/07/03 03:51:55;;;;;;;7.85;6.60;;;;;;;19.78;71.91;100478.41;5085815;28;20020;-66
2021/07/03 03:54:22;;;;;;;7.75;5.80;;;;;;;20.33;71.11;100483.81;5086121;28;20520;-67
2021/07/03 03:56:47;;;;;;;11.30;6.47;;;;;;;20.92;70.86;100477.44;5086044;28;20029;-66
2021/07/03 03:59:13;;;;;;;10.05;6.78;;;;;;;21.50;66.50;100482.41;5084512;28;20024;-66
2021/07/03 04:01:39;;;;;;;7.38;5.78;;;;;;;21.88;66.47;100483.94;5085766;28;20043;-65
2021/07/03 04:04:05;;;;;;;6.22;5.53;;;;;;;22.46;65.33;100486.84;5085829;28;20032;-66
2021/07/03 04:06:30;;;;;;;8.27;5.68;;;;;;;23.01;62.50;100484.59;5085609;28;20024;-65
2021/07/03 04:08:56;;;;;;;7.70;5.93;;;;;;;23.37;60.41;100485.09;5085699;28;20017;-66
2021/07/03 04:11:21;;;;;;;8.75;5.95;;;;;;;23.60;57.14;100477.56;5085653;28;20059;-65
2021/07/03 04:13:46;;;;;;;6.97;5.32;;;;;;;23.66;57.07;100486.09;5084272;28;20035;-66
2021/07/03 04:16:12;;;;;;;7.90;6.43;;;;;;;23.79;57.48;100484.34;5085472;28;20111;-66
2021/07/03 04:18:37;;;;;;;6.57;5.85;;;;;;;24.19;57.66;100480.09;5085497;28;20029;-66
2021/07/03 04:21:03;;;;;;;8.70;5.90;;;;;;;24.70;56.16;100490.03;5083962;28;20078;-65
2021/07/03 04:23:28;;;;;;;5.80;5.20;;;;;;;25.10;54.77;100496.25;5085515;28;20527;-65
2021/07/03 04:25:54;;;;;;;9.90;5.55;;;;;;;25.31;53.38;100490.44;5085204;28;20017;-65
2021/07/03 04:28:19;;;;;;;8.02;5.97;;;;;;;25.12;52.17;100489.91;5085137;28;20017;-65
2021/07/03 04:30:45;;;;;;;8.30;5.65;;;;;;;24.85;53.10;100484.66;5085361;28;20028;-65
2021/07/03 04:33:10;;;;;;;9.82;6.50;;;;;;;24.87;53.85;100485.41;5085110;28;20028;-66
2021/07/03 04:35:36;;;;;;;7.22;6.40;;;;;;;24.84;52.80;100480.31;5083774;28;20035;-66
2021/07/03 04:38:01;;;;;;;7.13;6.20;;;;;;;24.59;52.52;100492.56;5084839;28;20035;-65
2021/07/03 04:40:26;;;;;;;11.15;6.30;;;;;;;24.25;52.76;100492.97;5084985;28;20029;-66
2021/07/03 04:42:52;;;;;;;7.35;5.75;;;;;;;23.96;52.40;100490.38;5085081;28;20032;-66
2021/07/03 04:45:17;;;;;;;6.60;5.43;;;;;;;23.88;53.10;100493.53;5084941;28;20221;-65
2021/07/03 04:47:43;;;;;;;6.32;5.60;;;;;;;24.14;53.63;100496.28;5084655;28;20086;-65
2021/07/03 04:50:09;;;;;;;7.18;5.57;;;;;;;24.56;52.01;100490.09;5083487;28;20020;-65
2021/07/03 04:52:36;;;;;;;8.18;5.72;;;;;;;25.02;51.09;100488.84;5084997;28;20020;-66
2021/07/03 04:55:02;;;;;;;5.93;5.32;;;;;;;25.45;49.55;100489.44;5084856;28;20032;-65
2021/07/03 04:57:27;;;;;;;6.10;5.43;;;;;;;25.84;48.20;100482.31;5084639;28;20025;-64
2021/07/03 04:59:53;;;;;;;7.03;5.53;;;;;;;26.32;47.41;100482.47;5084788;28;20020;-65
2021/07/03 05:02:18;;;;;;;6.55;5.40;;;;;;;26.66;46.69;100495.06;5084644;28;20496;-65
2021/07/03 05:04:44;;;;;;;8.43;5.53;;;;;;;26.82;46.13;100484.09;5084732;28;20094;-66
2021/07/03 05:07:10;;;;;;;6.53;5.80;;;;;;;26.95;46.10;100490.16;5084509;28;20080;-64
2021/07/03 05:09:35;;;;;;;7.22;6.15;;;;;;;26.76;46.42;100497.88;5084633;28;20058;-65
2021/07/03 05:12:01;;;;;;;7.03;5.68;;;;;;;26.38;47.25;100495.31;5082757;28;20512;-65
2021/07/03 05:14:27;;;;;;;7.13;5.40;;;;;;;26.08;47.02;100476.16;5082806;28;20055;-66
2021/07/03 05:16:53;;;;;;;7.90;5.40;;;;;;;25.92;47.76;100494.19;5084145;28;20025;-66
2021/07/03 05:19:18;;;;;;;7.05;5.85;;;;;;;25.97;48.07;100492.91;5084416;28;20464;-66
2021/07/03 05:21:44;;;;;;;6.65;6.03;;;;;;;25.77;48.34;100493.50;5084400;28;20021;-65
2021/07/03 05:24:10;;;;;;;8.65;5.95;;;;;;;25.70;48.43;100493.91;5084274;28;20028;-66
2021/07/03 05:26:36;;;;;;;6.53;5.22;;;;;;;25.64;47.60;100491.69;5084065;28;20066;-66
2021/07/03 05:29:02;;;;;;;5.78;5.18;;;;;;;25.20;48.01;100497.34;5083024;28;20024;-65
2021/07/03 05:31:28;;;;;;;5.20;4.70;;;;;;;24.80;47.25;100487.63;5083865;28;20400;-65
2021/07/03 05:33:53;;;;;;;6.80;5.03;;;;;;;24.69;47.67;100485.69;5083200;28;20088;-65
2021/07/03 05:36:19;;;;;;;6.43;4.72;;;;;;;24.78;46.75;100486.03;5083534;28;20024;-65
2021/07/03 05:38:47;;;;;;;5.30;4.80;;;;;;;24.69;45.16;100488.34;5083696;28;20241;-65
2021/07/03 05:41:13;;;;;;;5.32;4.47;;;;;;;24.24;45.92;100476.22;5083827;28;20017;-65
2021/07/03 05:43:39;;;;;;;4.57;3.30;;;;;;;24.17;44.40;100480.22;5083787;28;20032;-66
2021/07/03 05:46:06;;;;;;;4.72;3.97;;;;;;;24.47;44.04;100489.75;5083570;28;20051;-66
2021/07/03 05:48:37;;;;;;;4.05;3.20;;;;;;;24.86;42.17;100483.69;5083253;28;20044;-66
2021/07/03 05:51:03;;;;;;;3.55;3.25;;;;;;;25.28;40.29;100483.53;5083742;28;20088;-66
2021/07/03 05:53:29;;;;;;;3.63;2.92;;;;;;;25.47;39.82;100490.19;5083715;28;20024;-66
2021/07/03 05:55:54;;;;;;;5.40;3.08;;;;;;;25.62;39.21;100472.38;5083553;28;20059;-66
2021/07/03 05:58:20;;;;;;;5.38;3.10;;;;;;;25.90;37.90;100485.44;5083435;28;20029;-66
2021/07/03 06:00:45;;;;;;;5.30;3.30;;;;;;;25.98;38.12;100486.63;5083785;28;20020;-66
2021/07/03 06:03:10;;;;;;;3.25;2.95;;;;;;;26.07;37.40;100477.09;5083489;28;20027;-66
2021/07/03 06:05:36;;;;;;;3.10;2.67;;;;;;;26.22;36.75;100477.78;5083371;28;20021;-64
2021/07/03 06:08:02;;;;;;;3.72;2.90;;;;;;;26.29;36.50;100472.00;5083395;28;20021;-65
2021/07/03 06:10:27;;;;;;;4.47;3.33;;;;;;;26.41;36.57;100476.44;5083452;28;20027;-66
2021/07/03 06:12:52;;;;;;;4.40;3.22;;;;;;;26.65;37.41;100478.22;5083292;28;20021;-65
2021/07/03 06:15:18;;;;;;;3.72;3.40;;;;;;;27.04;37.96;100487.78;5083184;28;20150;-66
2021/07/03 06:17:43;;;;;;;4.65;4.10;;;;;;;27.10;38.24;100481.97;5083063;28;20021;-66
2021/07/03 06:20:10;;;;;;;6.28;4.10;;;;;;;27.12;38.30;100474.72;5083291;28;20028;-65
2021/07/03 06:22:37;;;;;;;4.53;4.10;;;;;;;27.20;39.05;100466.97;5083509;28;20044;-66
2021/07/03 06:25:03;;;;;;;6.13;4.18;;;;;;;27.26;38.95;100478.09;5083690;28;20031;-66
2021/07/03 06:27:29;;;;;;;7.55;4.07;;;;;;;27.33;39.30;100471.34;5083332;28;20028;-65
2021/07/03 06:29:54;;;;;;;5.10;4.45;;;;;;;27.52;39.43;100481.41;5083404;28;20039;-66
2021/07/03 06:32:20;;;;;;;5.93;3.80;;;;;;;27.54;39.36;100483.94;5083126;28;20055;-65
2021/07/03 06:34:45;;;;;;;4.88;3.75;;;;;;;27.77;39.61;100482.13;5083255;28;20021;-66
2021/07/03 06:37:11;;;;;;;4.88;4.30;;;;;;;28.10;38.66;100482.16;5083131;28;20078;-65
2021/07/03 06:39:36;;;;;;;5.00;4.20;;;;;;;28.37;37.52;100480.03;5083381;28;20029;-65
2021/07/03 06:42:02;;;;;;;9.23;4.47;;;;;;;28.36;36.87;100484.53;5083122;28;20027;-65
2021/07/03 06:44:27;;;;;;;5.20;4.05;;;;;;;28.07;36.44;100495.75;5083149;28;20053;-66
2021/07/03 06:46:52;;;;;;;5.28;3.92;;;;;;;27.77;37.07;100489.25;5085737;28;20016;-66
2021/07/03 06:49:18;;;;;;;5.53;4.13;;;;;;;27.51;38.25;100486.84;5087248;28;20056;-67
2021/07/03 06:51:49;;;;;;;5.63;4.05;;;;;;;27.47;38.32;100484.44;5087322;28;20277;-66
2021/07/03 06:54:15;;;;;;;4.85;4.45;;;;;;;27.49;38.84;100480.78;5087301;28;20032;-66
2021/07/03 06:56:40;;;;;;;4.57;4.15;;;;;;;27.59;38.08;100479.06;5087438;28;20028;-66
2021/07/03 06:59:08;;;;;;;7.45;4.95;;;;;;;27.50;37.86;100482.47;5087334;28;20021;-64
2021/07/03 07:01:34;;;;;;;5.20;4.15;;;;;;;27.28;38.12;100481.50;5087245;28;20031;-66
2021/07/03 07:03:59;;;;;;;4.65;4.15;;;;;;;27.21;38.08;100490.00;5087024;28;20109;-66
2021/07/03 07:06:25;;;;;;;5.10;4.60;;;;;;;27.21;38.62;100494.47;5086574;28;20052;-66
2021/07/03 07:08:50;;;;;;;5.03;4.50;;;;;;;27.28;38.37;100489.50;5086922;28;20112;-65
2021/07/03 07:11:18;;;;;;;6.22;4.60;;;;;;;27.52;38.47;100478.72;5087067;28;20024;-66
2021/07/03 07:13:46;;;;;;;11.23;4.38;;;;;;;27.87;38.92;100490.22;5086666;28;20043;-66
2021/07/03 07:16:12;;;;;;;5.20;4.18;;;;;;;28.25;38.43;100484.53;5086818;28;20028;-68
2021/07/03 07:18:38;;;;;;;5.00;3.72;;;;;;;28.78;37.79;100489.06;5086479;28;20492;-66
2021/07/03 07:21:03;;;;;;;5.40;4.78;;;;;;;29.28;36.89;100486.69;5086839;28;20080;-69
2021/07/03 07:23:28;;;;;;;4.95;4.45;;;;;;;29.66;35.33;100486.97;5086648;28;20055;-68
2021/07/03 07:25:54;;;;;;;4.68;4.22;;;;;;;29.44;34.63;100494.22;5086408;28;20020;-67
2021/07/03 07:28:19;;;;;;;4.82;4.38;;;;;;;29.18;35.25;100487.50;5086333;28;20055;-66
2021/07/03 07:30:45;;;;;;;7.00;4.55;;;;;;;28.86;36.07;100480.38;5086417;28;20414;-67
2021/07/03 07:33:10;;;;;;;4.93;4.43;;;;;;;28.83;36.08;100488.66;5086480;28;20024;-68
2021/07/03 07:35:36;;;;;;;9.10;5.20;;;;;;;29.10;36.88;100471.25;5086469;28;20052;-67
2021/07/03 07:38:02;;;;;;;5.05;4.55;;;;;;;29.65;36.89;100479.94;5084890;28;20027;-73
2021/07/03 07:40:27;;;;;;;7.15;5.10;;;;;;;30.29;35.72;100474.28;5086126;28;20477;-67
2021/07/03 07:42:53;;;;;;;6.70;4.30;;;;;;;31.00;34.62;100474.06;5086190;28;20099;-69
2021/07/03 07:45:18;;;;;;;5.97;5.38;;;;;;;31.45;32.79;100483.25;5084734;28;20028;-69
2021/07/03 07:47:44;;;;;;;5.22;4.72;;;;;;;31.66;32.73;100482.97;5084441;28;20040;-68
2021/07/03 07:50:09;;;;;;;5.82;4.68;;;;;;;31.98;32.18;100483.50;5086093;28;20029;-68
2021/07/03 07:52:35;;;;;;;5.40;4.78;;;;;;;32.31;32.38;100474.91;5085707;28;20029;-70
2021/07/03 07:55:14;;;;;;;5.57;4.93;;;;;;;32.59;31.29;100480.19;5085886;28;20381;-72
2021/07/03 07:57:40;;;;;;;7.10;4.70;;;;;;;32.48;30.91;100472.34;5083892;28;20028;-71
2021/07/03 08:00:06;;;;;;;6.05;4.55;;;;;;;32.45;31.76;100478.03;5085984;28;20024;-75
2021/07/03 08:02:32;;;;;;;5.95;3.90;;;;;;;32.76;30.97;100483.00;5085701;28;20234;-74
2021/07/03 08:05:00;;;;;;;6.80;4.82;;;;;;;32.92;30.47;100468.84;5085816;28;20028;-72
2021/07/03 08:07:25;;;;;;;5.50;4.65;;;;;;;33.06;29.84;100472.78;5085482;28;20051;-70
2021/07/03 08:09:51;;;;;;;5.53;4.88;;;;;;;32.98;30.78;100478.09;5084448;28;20020;-72
2021/07/03 08:12:16;;;;;;;5.60;3.97;;;;;;;33.38;31.11;100473.97;5085610;28;20031;-72
2021/07/03 08:14:41;;;;;;;4.68;4.28;;;;;;;33.98;29.78;100470.44;5085660;28;20029;-77
2021/07/03 08:17:07;;;;;;;6.00;4.13;;;;;;;34.34;28.94;100467.47;5085542;28;20092;-72
2021/07/03 08:19:32;;;;;;;4.95;4.25;;;;;;;34.72;28.03;100464.25;5085384;28;20020;-72
2021/07/03 08:21:58;;;;;;;4.90;4.40;;;;;;;34.79;27.41;100463.56;5085441;28;20020;-72
2021/07/03 08:24:25;;;;;;;4.90;4.25;;;;;;;34.33;27.27;100465.75;5085436;28;20028;-72
2021/07/03 08:26:50;;;;;;;7.63;5.47;;;;;;;33.85;27.92;100465.53;5085331;28;20056;-72
2021/07/03 08:29:16;;;;;;;4.43;4.03;;;;;;;33.15;28.10;100465.59;5085439;28;20032;-71
2021/07/03 08:31:41;;;;;;;4.88;4.30;;;;;;;32.42;28.94;100460.41;5085187;28;20024;-71
2021/07/03 08:34:06;;;;;;;5.65;4.00;;;;;;;32.08;29.22;100467.31;5085384;28;20478;-71
2021/07/03 08:36:32;;;;;;;4.75;4.30;;;;;;;32.08;30.64;100464.63;5084991;28;20028;-70
2021/07/03 08:38:57;;;;;;;5.72;4.03;;;;;;;32.39;29.91;100456.19;5085119;28;20025;-71
2021/07/03 08:41:24;;;;;;;4.68;4.25;;;;;;;32.22;29.96;100459.75;5085174;28;20103;-71
2021/07/03 08:43:50;;;;;;;7.68;4.68;;;;;;;31.73;29.82;100463.56;5084908;28;20036;-72
2021/07/03 08:46:19;;;;;;;4.95;4.45;;;;;;;31.38;30.80;100456.16;5085144;28;20036;-72
2021/07/03 08:48:49;;;;;;;5.20;4.30;;;;;;;31.09;30.85;100457.09;5084467;28;20051;-66
2021/07/03 08:51:15;;;;;;;4.72;4.25;;;;;;;30.55;31.41;100453.13;5083672;28;20024;-69
2021/07/03 08:53:40;;;;;;;4.80;4.20;;;;;;;30.75;32.83;100453.06;5083677;28;20020;-70
2021/07/03 08:56:06;;;;;;;7.97;4.72;;;;;;;31.29;31.83;100448.97;5084883;28;20031;-69
2021/07/03 08:58:31;;;;;;;4.63;4.20;;;;;;;31.34;31.69;100441.34;5084467;28;20056;-69
2021/07/03 09:00:56;;;;;;;6.45;4.63;;;;;;;31.22;31.68;100445.19;5084454;28;20027;-68
2021/07/03 09:03:24;;;;;;;6.05;4.88;;;;;;;31.19;32.23;100435.63;5084682;28;20027;-68
2021/07/03 09:05:55;;;;;;;5.68;4.53;;;;;;;31.36;31.98;100425.09;5084612;28;20028;-66
2021/07/03 09:08:23;;;;;;;5.97;4.72;;;;;;;31.47;31.96;100426.75;5066154;28;20020;-67
2021/07/03 09:11:01;;;;;;;6.65;4.97;;;;;;;31.79;32.20;100420.88;5084338;28;20028;-67
2021/07/03 09:13:26;;;;;;;5.07;4.57;;;;;;;32.42;31.39;100424.63;5084377;28;20020;-67
2021/07/03 09:15:51;;;;;;;5.57;4.97;;;;;;;32.87;29.95;100429.00;5084128;28;20023;-67
2021/07/03 09:18:17;;;;;;;5.40;4.60;;;;;;;32.74;29.48;100423.19;5084163;28;20020;-66
2021/07/03 09:20:50;;;;;;;5.57;5.07;;;;;;;32.31;29.90;100423.88;5084371;28;20077;-67
2021/07/03 09:23:35;;;;;;;6.95;4.82;;;;;;;32.18;30.75;100420.75;5083894;28;20023;-66
2021/07/03 09:26:12;;;;;;;6.53;5.55;;;;;;;32.51;30.38;100423.75;5084153;28;20020;-66
2021/07/03 09:28:39;;;;;;;6.35;4.88;;;;;;;32.60;30.30;100425.47;5083990;28;20024;-66
2021/07/03 09:31:05;;;;;;;5.63;4.75;;;;;;;32.77;29.56;100423.72;5084082;28;20023;-67
2021/07/03 09:33:49;;;;;;;6.43;4.85;;;;;;;32.46;29.94;100415.28;5084230;28;20027;-67
2021/07/03 09:36:22;;;;;;;5.03;4.53;;;;;;;32.50;30.28;100420.16;5082745;28;20027;-67
2021/07/03 09:38:53;;;;;;;8.57;5.43;;;;;;;32.94;29.12;100410.34;5084040;28;20283;-67
2021/07/03 09:41:21;;;;;;;5.88;5.05;;;;;;;33.06;29.06;100404.69;5082670;28;20021;-67
2021/07/03 09:43:52;;;;;;;5.13;4.45;;;;;;;33.42;29.28;100415.28;5084056;28;20026;-67
2021/07/03 09:46:36;;;;;;;5.13;4.63;;;;;;;33.66;27.87;100405.59;5083782;28;20025;-67
2021/07/03 09:49:07;;;;;;;5.20;4.70;;;;;;;33.03;28.56;100395.13;5083701;28;20045;-66
2021/07/03 09:51:36;;;;;;;4.82;4.22;;;;;;;32.13;29.99;100392.53;5083868;28;20060;-67
2021/07/03 09:54:03;;;;;;;5.45;4.65;;;;;;;32.06;30.20;100401.38;5083968;28;20031;-66
2021/07/03 09:56:28;;;;;;;5.38;4.88;;;;;;;32.03;29.82;100389.09;5083763;28;20044;-67
2021/07/03 09:58:54;;;;;;;5.65;3.67;;;;;;;32.00;28.35;100398.28;5083457;28;20027;-66
2021/07/03 10:01:20;;;;;;;7.10;4.82;;;;;;;31.59;29.19;100392.50;5083788;28;20017;-66
2021/07/03 10:03:45;;;;;;;6.95;4.03;;;;;;;31.39;29.51;100389.97;5083966;28;20017;-66
2021/07/03 10:06:15;;;;;;;5.18;3.78;;;;;;;31.46;29.51;100393.72;5083271;28;20086;-66
2021/07/03 10:08:44;;;;;;;5.72;4.20;;;;;;;31.32;29.18;100389.69;5083412;28;20088;-67
2021/07/03 10:11:17;;;;;;;5.07;4.57;;;;;;;31.33;29.22;100388.69;5083723;28;20012;-66
2021/07/03 10:13:44;;;;;;;4.53;4.13;;;;;;;31.25;29.14;100378.72;5083626;28;20039;-67
2021/07/03 10:16:10;;;;;;;5.55;4.18;;;;;;;31.36;28.81;100383.00;5081962;28;20031;-67
2021/07/03 10:18:36;;;;;;;4.90;4.20;;;;;;;31.40;29.02;100378.22;5081897;28;20021;-67
2021/07/03 10:21:21;;;;;;;4.72;4.03;;;;;;;31.33;30.48;100380.63;5083624;28;20107;-66
2021/07/03 10:23:47;;;;;;;6.72;3.85;;;;;;;31.93;28.98;100375.72;5083536;28;20076;-66
2021/07/03 10:26:13;;;;;;;4.65;3.88;;;;;;;32.28;27.89;100373.19;5083445;28;20037;-66
2021/07/03 10:28:42;;;;;;;6.63;4.03;;;;;;;32.44;27.41;100374.28;5083311;28;20051;-66
2021/07/03 10:31:13;;;;;;;5.72;3.85;;;;;;;32.26;27.66;100364.41;5083342;28;20020;-66
2021/07/03 10:33:45;;;;;;;5.32;4.82;;;;;;;32.27;28.07;100376.88;5083331;28;20581;-66
2021/07/03 10:36:26;;;;;;;7.45;4.25;;;;;;;31.64;28.34;100366.06;5083487;28;20029;-67
2021/07/03 10:38:52;;;;;;;4.57;4.07;;;;;;;30.95;28.62;100371.81;5082123;28;20033;-67
2021/07/03 10:41:23;;;;;;;4.90;3.58;;;;;;;30.66;28.71;100370.91;5083582;28;20380;-67
2021/07/03 10:43:50;;;;;;;4.80;4.40;;;;;;;30.19;29.57;100369.88;5083314;28;20028;-67
2021/07/03 10:46:45;;;;;;;4.60;4.00;;;;;;;29.74;30.18;100365.91;5083227;28;20025;-66
2021/07/03 10:49:29;;;;;;;4.18;3.78;;;;;;;29.27;30.95;100368.22;5070080;28;20040;-67
2021/07/03 10:51:54;;;;;;;4.20;3.80;;;;;;;28.99;31.74;100372.47;5081813;28;20024;-67
2021/07/03 10:54:26;;;;;;;7.38;4.40;;;;;;;28.79;31.41;100378.56;5083443;28;20024;-66
2021/07/03 10:57:08;;;;;;;5.18;4.40;;;;;;;28.67;31.97;100375.13;5081315;28;20017;-67
2021/07/03 10:59:39;;;;;;;4.43;4.00;;;;;;;29.27;31.18;100375.38;5083484;28;20021;-67
2021/07/03 11:02:08;;;;;;;4.13;3.73;;;;;;;29.53;30.85;100365.03;5083102;28;20025;-67
2021/07/03 11:04:43;;;;;;;7.38;5.28;;;;;;;29.22;34.29;100380.31;5082949;28;20325;-66
2021/07/03 11:07:12;;;;;;;6.30;5.70;;;;;;;28.80;36.21;100380.22;5082197;28;20755;-67
2021/07/03 11:09:38;;;;;;;6.20;5.60;;;;;;;28.72;37.04;100374.72;5082974;28;20039;-66
2021/07/03 11:12:13;;;;;;;7.38;6.50;;;;;;;28.76;38.43;100377.97;5082856;28;20032;-67
2021/07/03 11:14:46;;;;;;;7.53;6.38;;;;;;;28.74;39.59;100374.59;5083049;28;20024;-66
2021/07/03 11:17:14;;;;;;;8.43;5.90;;;;;;;28.69;39.69;100370.47;5082439;28;20029;-66
2021/07/03 11:19:43;;;;;;;7.68;6.13;;;;;;;28.66;39.61;100373.41;5064846;28;20028;-66